sensor_id;sensor_type;location;lat;lon;timestamp;pressure;altitude;pressure_sealevel;temperature;humidity
56719;BME280;42597;40.636;0.278;2023-03-04T00:01:04;97594.31;;;9.19;52.72
56719;BME280;42597;40.636;0.278;2023-03-04T00:03:29;97602.16;;;8.48;51.08
56719;BME280;42597;40.636;0.278;2023-03-04T00:05:55;97604.09;;;8.21;53.76
56719;BME280;42597;40.636;0.278;2023-03-04T00:08:21;97600.00;;;9.26;49.95
56719;BME280;42597;40.636;0.278;2023-03-04T00:10:46;97593.66;;;9.52;51.74
56719;BME280;42597;40.636;0.278;2023-03-04T00:13:12;97593.66;;;9.22;54.05
56719;BME280;42597;40.636;0.278;2023-03-04T00:15:37;97591.59;;;10.66;46.58
56719;BME280;42597;40.636;0.278;2023-03-04T00:18:03;97601.47;;;8.68;52.18
56719;BME280;42597;40.636;0.278;2023-03-04T00:20:28;97583.72;;;9.14;53.42
56719;BME280;42597;40.636;0.278;2023-03-04T00:22:54;97603.00;;;7.79;52.86
56719;BME280;42597;40.636;0.278;2023-03-04T00:25:19;97603.94;;;7.91;52.39
56719;BME280;42597;40.636;0.278;2023-03-04T00:27:45;97598.50;;;9.37;56.05
56719;BME280;42597;40.636;0.278;2023-03-04T00:30:11;97602.00;;;10.01;50.63
56719;BME280;42597;40.636;0.278;2023-03-04T00:32:37;97597.59;;;10.96;54.67
56719;BME280;42597;40.636;0.278;2023-03-04T00:35:04;97599.94;;;9.85;49.58
56719;BME280;42597;40.636;0.278;2023-03-04T00:37:30;97599.78;;;10.69;52.13
56719;BME280;42597;40.636;0.278;2023-03-04T00:39:55;97593.31;;;10.95;50.97
56719;BME280;42597;40.636;0.278;2023-03-04T00:42:21;97612.00;;;9.37;51.22
56719;BME280;42597;40.636;0.278;2023-03-04T00:44:46;97606.81;;;9.24;53.48
56719;BME280;42597;40.636;0.278;2023-03-04T00:47:13;97596.91;;;11.48;53.51
56719;BME280;42597;40.636;0.278;2023-03-04T00:49:39;97606.88;;;10.07;49.41
56719;BME280;42597;40.636;0.278;2023-03-04T00:52:05;97603.56;;;11.63;46.39
56719;BME280;42597;40.636;0.278;2023-03-04T00:54:30;97601.75;;;10.35;50.39
56719;BME280;42597;40.636;0.278;2023-03-04T00:56:56;97590.63;;;10.95;54.38
56719;BME280;42597;40.636;0.278;2023-03-04T00:59:22;97597.06;;;10.57;47.64
56719;BME280;42597;40.636;0.278;2023-03-04T01:01:47;97579.03;;;12.24;50.98
56719;BME280;42597;40.636;0.278;2023-03-04T01:04:13;97589.19;;;11.99;49.08
56719;BME280;42597;40.636;0.278;2023-03-04T01:06:38;97597.25;;;10.40;52.03
56719;BME280;42597;40.636;0.278;2023-03-04T01:09:04;97586.34;;;11.43;51.07
56719;BME280;42597;40.636;0.278;2023-03-04T01:11:29;97586.13;;;10.99;51.63
56719;BME280;42597;40.636;0.278;2023-03-04T01:13:55;97591.06;;;10.97;53.22
56719;BME280;42597;40.636;0.278;2023-03-04T01:16:20;97579.72;;;10.46;52.01
56719;BME280;42597;40.636;0.278;2023-03-04T01:18:46;97579.56;;;9.88;49.65
56719;BME280;42597;40.636;0.278;2023-03-04T01:21:12;97584.66;;;9.89;49.58
56719;BME280;42597;40.636;0.278;2023-03-04T01:23:37;97585.53;;;10.35;51.16
56719;BME280;42597;40.636;0.278;2023-03-04T01:26:03;97578.00;;;11.11;52.46
56719;BME280;42597;40.636;0.278;2023-03-04T01:28:29;97570.31;;;9.98;49.36
56719;BME280;42597;40.636;0.278;2023-03-04T01:30:54;97568.81;;;11.65;52.74
56719;BME280;42597;40.636;0.278;2023-03-04T01:33:20;97578.94;;;10.45;48.38
56719;BME280;42597;40.636;0.278;2023-03-04T01:35:45;97575.09;;;9.71;52.45
56719;BME280;42597;40.636;0.278;2023-03-04T01:38:11;97567.16;;;12.28;50.49
56719;BME280;42597;40.636;0.278;2023-03-04T01:40:37;97577.28;;;9.57;51.96
56719;BME280;42597;40.636;0.278;2023-03-04T01:43:03;97556.84;;;9.26;52.38
56719;BME280;42597;40.636;0.278;2023-03-04T01:45:30;97569.13;;;9.86;51.45
56719;BME280;42597;40.636;0.278;2023-03-04T01:47:56;97572.09;;;9.22;51.34
56719;BME280;42597;40.636;0.278;2023-03-04T01:50:33;97576.09;;;9.46;51.84
56719;BME280;42597;40.636;0.278;2023-03-04T01:53:00;97554.13;;;8.67;54.35
56719;BME280;42597;40.636;0.278;2023-03-04T01:55:27;97563.72;;;9.15;51.59
56719;BME280;42597;40.636;0.278;2023-03-04T01:57:53;97565.09;;;10.47;52.33
56719;BME280;42597;40.636;0.278;2023-03-04T02:00:31;97537.31;;;11.32;52.76
56719;BME280;42597;40.636;0.278;2023-03-04T02:03:00;97555.63;;;9.86;50.56
56719;BME280;42597;40.636;0.278;2023-03-04T02:05:27;97549.44;;;9.44;52.77
56719;BME280;42597;40.636;0.278;2023-03-04T02:07:54;97553.72;;;9.87;49.13
56719;BME280;42597;40.636;0.278;2023-03-04T02:10:20;97545.47;;;8.91;53.46
56719;BME280;42597;40.636;0.278;2023-03-04T02:12:46;97553.31;;;9.55;56.02
56719;BME280;42597;40.636;0.278;2023-03-04T02:15:11;97539.75;;;9.43;57.37
56719;BME280;42597;40.636;0.278;2023-03-04T02:17:37;97535.97;;;9.65;52.63
56719;BME280;42597;40.636;0.278;2023-03-04T02:22:36;97540.75;;;8.41;55.70
56719;BME280;42597;40.636;0.278;2023-03-04T02:25:06;97524.31;;;11.37;53.01
56719;BME280;42597;40.636;0.278;2023-03-04T02:27:35;97539.75;;;9.22;50.61
56719;BME280;42597;40.636;0.278;2023-03-04T02:30:01;97524.94;;;10.24;52.95
56719;BME280;42597;40.636;0.278;2023-03-04T02:32:26;97529.78;;;10.76;49.74
56719;BME280;42597;40.636;0.278;2023-03-04T02:34:52;97528.97;;;10.18;51.83
56719;BME280;42597;40.636;0.278;2023-03-04T02:37:18;97532.53;;;9.56;53.18
56719;BME280;42597;40.636;0.278;2023-03-04T02:39:46;97517.88;;;9.99;56.33
56719;BME280;42597;40.636;0.278;2023-03-04T02:42:13;97524.03;;;10.66;53.91
56719;BME280;42597;40.636;0.278;2023-03-04T02:44:43;97515.41;;;9.94;50.03
56719;BME280;42597;40.636;0.278;2023-03-04T02:47:12;97523.25;;;8.56;54.10
56719;BME280;42597;40.636;0.278;2023-03-04T02:49:39;97519.59;;;10.49;51.73
56719;BME280;42597;40.636;0.278;2023-03-04T02:52:08;97518.28;;;10.67;54.05
56719;BME280;42597;40.636;0.278;2023-03-04T02:54:36;97513.84;;;9.51;55.58
56719;BME280;42597;40.636;0.278;2023-03-04T02:57:04;97519.41;;;8.74;53.93
56719;BME280;42597;40.636;0.278;2023-03-04T02:59:31;97521.94;;;10.05;54.59
56719;BME280;42597;40.636;0.278;2023-03-04T03:01:56;97518.09;;;9.10;51.38
56719;BME280;42597;40.636;0.278;2023-03-04T03:04:22;97520.88;;;10.18;47.50
56719;BME280;42597;40.636;0.278;2023-03-04T03:06:48;97515.81;;;10.50;56.45
56719;BME280;42597;40.636;0.278;2023-03-04T03:09:15;97513.00;;;11.07;54.61
56719;BME280;42597;40.636;0.278;2023-03-04T03:11:40;97512.72;;;8.42;50.99
56719;BME280;42597;40.636;0.278;2023-03-04T03:14:06;97522.97;;;8.87;51.11
56719;BME280;42597;40.636;0.278;2023-03-04T03:16:32;97511.53;;;10.73;54.67
56719;BME280;42597;40.636;0.278;2023-03-04T03:18:58;97511.16;;;10.05;57.94
56719;BME280;42597;40.636;0.278;2023-03-04T03:21:23;97516.25;;;10.88;50.59
56719;BME280;42597;40.636;0.278;2023-03-04T03:23:49;97506.25;;;10.19;53.46
56719;BME280;42597;40.636;0.278;2023-03-04T03:26:15;97498.44;;;10.38;53.72
56719;BME280;42597;40.636;0.278;2023-03-04T03:28:40;97507.03;;;10.20;55.30
56719;BME280;42597;40.636;0.278;2023-03-04T03:31:06;97506.31;;;8.94;52.42
56719;BME280;42597;40.636;0.278;2023-03-04T03:33:32;97511.34;;;9.25;51.37
56719;BME280;42597;40.636;0.278;2023-03-04T03:35:57;97516.88;;;9.49;56.08
56719;BME280;42597;40.636;0.278;2023-03-04T03:38:23;97499.00;;;10.56;53.70
56719;BME280;42597;40.636;0.278;2023-03-04T03:40:48;97504.91;;;10.71;54.44
56719;BME280;42597;40.636;0.278;2023-03-04T03:43:14;97485.97;;;12.48;50.69
56719;BME280;42597;40.636;0.278;2023-03-04T03:45:39;97503.47;;;11.78;51.00
56719;BME280;42597;40.636;0.278;2023-03-04T03:48:05;97502.97;;;11.60;51.40
56719;BME280;42597;40.636;0.278;2023-03-04T03:50:30;97500.69;;;10.49;53.97
56719;BME280;42597;40.636;0.278;2023-03-04T03:52:57;97507.47;;;10.55;51.93
56719;BME280;42597;40.636;0.278;2023-03-04T03:55:23;97493.06;;;11.00;54.02
56719;BME280;42597;40.636;0.278;2023-03-04T03:57:48;97511.50;;;8.69;50.91
56719;BME280;42597;40.636;0.278;2023-03-04T04:00:15;97504.69;;;9.64;52.59
56719;BME280;42597;40.636;0.278;2023-03-04T04:02:41;97497.81;;;10.66;53.01
56719;BME280;42597;40.636;0.278;2023-03-04T04:05:08;97503.00;;;9.93;49.99
56719;BME280;42597;40.636;0.278;2023-03-04T04:07:35;97487.91;;;11.88;52.77
56719;BME280;42597;40.636;0.278;2023-03-04T04:10:00;97500.03;;;11.13;51.63
56719;BME280;42597;40.636;0.278;2023-03-04T04:12:26;97509.88;;;9.90;50.67
56719;BME280;42597;40.636;0.278;2023-03-04T04:14:52;97499.13;;;10.60;54.02
56719;BME280;42597;40.636;0.278;2023-03-04T04:17:17;97500.28;;;10.96;54.22
56719;BME280;42597;40.636;0.278;2023-03-04T04:19:43;97508.47;;;10.38;48.87
56719;BME280;42597;40.636;0.278;2023-03-04T04:22:13;97509.69;;;10.07;49.57
56719;BME280;42597;40.636;0.278;2023-03-04T04:24:39;97511.22;;;9.21;54.54
56719;BME280;42597;40.636;0.278;2023-03-04T04:27:05;97498.81;;;10.98;52.88
56719;BME280;42597;40.636;0.278;2023-03-04T04:29:30;97504.63;;;9.31;52.22
56719;BME280;42597;40.636;0.278;2023-03-04T04:31:56;97502.00;;;9.22;56.25
56719;BME280;42597;40.636;0.278;2023-03-04T04:34:22;97508.19;;;9.85;55.67
56719;BME280;42597;40.636;0.278;2023-03-04T04:36:47;97493.72;;;11.09;54.30
56719;BME280;42597;40.636;0.278;2023-03-04T04:39:13;97518.16;;;9.01;50.62
56719;BME280;42597;40.636;0.278;2023-03-04T04:41:41;97501.63;;;10.77;57.51
56719;BME280;42597;40.636;0.278;2023-03-04T04:44:07;97506.94;;;10.61;48.02
56719;BME280;42597;40.636;0.278;2023-03-04T04:46:33;97503.44;;;9.82;56.21
56719;BME280;42597;40.636;0.278;2023-03-04T04:48:59;97511.50;;;8.99;53.68
56719;BME280;42597;40.636;0.278;2023-03-04T04:51:24;97501.75;;;10.23;54.47
56719;BME280;42597;40.636;0.278;2023-03-04T04:53:50;97506.53;;;11.36;54.41
56719;BME280;42597;40.636;0.278;2023-03-04T04:56:18;97510.00;;;9.94;49.90
56719;BME280;42597;40.636;0.278;2023-03-04T04:58:45;97502.75;;;10.76;51.39
56719;BME280;42597;40.636;0.278;2023-03-04T05:01:10;97510.06;;;10.63;51.99
56719;BME280;42597;40.636;0.278;2023-03-04T05:03:37;97508.16;;;10.76;52.62
56719;BME280;42597;40.636;0.278;2023-03-04T05:06:04;97505.00;;;10.86;52.82
56719;BME280;42597;40.636;0.278;2023-03-04T05:08:31;97510.56;;;10.32;55.18
56719;BME280;42597;40.636;0.278;2023-03-04T05:10:57;97511.06;;;11.08;49.90
56719;BME280;42597;40.636;0.278;2023-03-04T05:13:22;97511.53;;;11.10;51.87
56719;BME280;42597;40.636;0.278;2023-03-04T05:15:51;97509.69;;;10.07;51.06
56719;BME280;42597;40.636;0.278;2023-03-04T05:18:18;97507.81;;;10.20;50.74
56719;BME280;42597;40.636;0.278;2023-03-04T05:20:44;97503.34;;;12.15;52.07
56719;BME280;42597;40.636;0.278;2023-03-04T05:23:10;97514.56;;;10.59;49.75
56719;BME280;42597;40.636;0.278;2023-03-04T05:25:35;97508.16;;;12.38;49.52
56719;BME280;42597;40.636;0.278;2023-03-04T05:28:01;97510.06;;;11.12;50.28
56719;BME280;42597;40.636;0.278;2023-03-04T05:30:29;97522.91;;;10.79;47.77
56719;BME280;42597;40.636;0.278;2023-03-04T05:32:54;97526.84;;;8.13;57.76
56719;BME280;42597;40.636;0.278;2023-03-04T05:35:20;97526.34;;;11.41;54.07
56719;BME280;42597;40.636;0.278;2023-03-04T05:37:45;97520.94;;;11.41;53.24
56719;BME280;42597;40.636;0.278;2023-03-04T05:40:11;97527.53;;;11.15;53.01
56719;BME280;42597;40.636;0.278;2023-03-04T05:42:37;97526.03;;;11.82;51.74
56719;BME280;42597;40.636;0.278;2023-03-04T05:45:02;97530.53;;;11.91;50.78
56719;BME280;42597;40.636;0.278;2023-03-04T05:47:28;97536.06;;;11.05;48.54
56719;BME280;42597;40.636;0.278;2023-03-04T05:49:54;97545.13;;;10.27;48.91
56719;BME280;42597;40.636;0.278;2023-03-04T05:52:19;97535.63;;;10.66;49.71
56719;BME280;42597;40.636;0.278;2023-03-04T05:54:45;97547.34;;;10.70;54.00
56719;BME280;42597;40.636;0.278;2023-03-04T05:57:10;97551.88;;;9.79;54.55
56719;BME280;42597;40.636;0.278;2023-03-04T05:59:36;97551.19;;;10.94;51.54
56719;BME280;42597;40.636;0.278;2023-03-04T06:02:01;97549.34;;;10.61;50.78
56719;BME280;42597;40.636;0.278;2023-03-04T06:04:27;97557.38;;;11.31;52.36
56719;BME280;42597;40.636;0.278;2023-03-04T06:06:52;97554.56;;;11.27;53.54
56719;BME280;42597;40.636;0.278;2023-03-04T06:09:18;97550.56;;;12.02;49.66
56719;BME280;42597;40.636;0.278;2023-03-04T06:11:45;97560.41;;;10.80;52.78
56719;BME280;42597;40.636;0.278;2023-03-04T06:14:11;97559.00;;;10.37;50.18
56719;BME280;42597;40.636;0.278;2023-03-04T06:16:36;97558.72;;;9.97;51.37
56719;BME280;42597;40.636;0.278;2023-03-04T06:19:02;97561.78;;;10.74;52.67
56719;BME280;42597;40.636;0.278;2023-03-04T06:21:28;97566.84;;;10.30;51.05
56719;BME280;42597;40.636;0.278;2023-03-04T06:23:53;97562.91;;;11.22;54.13
56719;BME280;42597;40.636;0.278;2023-03-04T06:26:19;97559.63;;;11.94;50.95
56719;BME280;42597;40.636;0.278;2023-03-04T06:28:44;97550.00;;;11.56;52.77
56719;BME280;42597;40.636;0.278;2023-03-04T06:31:10;97568.97;;;9.83;51.20
56719;BME280;42597;40.636;0.278;2023-03-04T06:33:36;97570.97;;;9.53;49.67
56719;BME280;42597;40.636;0.278;2023-03-04T06:36:01;97571.09;;;9.77;49.92
56719;BME280;42597;40.636;0.278;2023-03-04T06:38:27;97560.75;;;9.08;51.49
56719;BME280;42597;40.636;0.278;2023-03-04T06:40:53;97581.97;;;9.89;55.30
56719;BME280;42597;40.636;0.278;2023-03-04T06:43:19;97578.16;;;8.81;54.56
56719;BME280;42597;40.636;0.278;2023-03-04T06:45:45;97580.72;;;9.07;57.19
56719;BME280;42597;40.636;0.278;2023-03-04T06:48:10;97584.63;;;10.31;53.53
56719;BME280;42597;40.636;0.278;2023-03-04T06:50:38;97580.22;;;9.43;53.95
56719;BME280;42597;40.636;0.278;2023-03-04T06:53:04;97593.25;;;10.58;54.39
56719;BME280;42597;40.636;0.278;2023-03-04T06:55:29;97582.72;;;11.39;52.83
56719;BME280;42597;40.636;0.278;2023-03-04T06:57:55;97587.56;;;11.98;52.15
56719;BME280;42597;40.636;0.278;2023-03-04T07:00:21;97600.63;;;9.23;55.26
56719;BME280;42597;40.636;0.278;2023-03-04T07:02:48;97597.03;;;9.91;52.42
56719;BME280;42597;40.636;0.278;2023-03-04T07:05:13;97615.75;;;7.47;55.34
56719;BME280;42597;40.636;0.278;2023-03-04T07:07:39;97622.59;;;8.57;56.55
56719;BME280;42597;40.636;0.278;2023-03-04T07:10:05;97617.31;;;10.51;54.95
56719;BME280;42597;40.636;0.278;2023-03-04T07:12:30;97609.22;;;10.51;50.44
56719;BME280;42597;40.636;0.278;2023-03-04T07:14:56;97612.88;;;9.71;55.05
56719;BME280;42597;40.636;0.278;2023-03-04T07:17:21;97623.72;;;7.96;53.05
56719;BME280;42597;40.636;0.278;2023-03-04T07:19:47;97635.59;;;8.03;52.97
56719;BME280;42597;40.636;0.278;2023-03-04T07:22:12;97619.03;;;10.01;56.56
56719;BME280;42597;40.636;0.278;2023-03-04T07:24:38;97631.00;;;8.04;52.15
56719;BME280;42597;40.636;0.278;2023-03-04T07:27:03;97628.91;;;9.47;52.02
56719;BME280;42597;40.636;0.278;2023-03-04T07:29:29;97635.78;;;9.65;51.92
56719;BME280;42597;40.636;0.278;2023-03-04T07:31:54;97625.84;;;10.41;54.87
56719;BME280;42597;40.636;0.278;2023-03-04T07:34:20;97633.22;;;10.98;52.86
56719;BME280;42597;40.636;0.278;2023-03-04T07:36:46;97630.28;;;11.15;53.52
56719;BME280;42597;40.636;0.278;2023-03-04T07:39:11;97635.59;;;10.33;48.43
56719;BME280;42597;40.636;0.278;2023-03-04T07:41:38;97637.84;;;11.22;53.15
56719;BME280;42597;40.636;0.278;2023-03-04T07:44:05;97639.97;;;11.41;50.19
56719;BME280;42597;40.636;0.278;2023-03-04T07:46:31;97631.16;;;11.93;52.79
56719;BME280;42597;40.636;0.278;2023-03-04T07:48:57;97650.41;;;10.93;54.21
56719;BME280;42597;40.636;0.278;2023-03-04T07:51:24;97643.59;;;11.32;50.20
56719;BME280;42597;40.636;0.278;2023-03-04T07:53:53;97647.78;;;10.39;50.21
56719;BME280;42597;40.636;0.278;2023-03-04T07:56:21;97642.66;;;11.04;51.86
56719;BME280;42597;40.636;0.278;2023-03-04T07:58:47;97652.84;;;10.61;49.15
56719;BME280;42597;40.636;0.278;2023-03-04T08:01:15;97650.56;;;11.82;51.54
56719;BME280;42597;40.636;0.278;2023-03-04T08:03:42;97644.84;;;12.24;51.17
56719;BME280;42597;40.636;0.278;2023-03-04T08:06:09;97651.91;;;11.89;49.61
56719;BME280;42597;40.636;0.278;2023-03-04T08:08:35;97660.66;;;12.22;46.36
56719;BME280;42597;40.636;0.278;2023-03-04T08:11:06;97657.56;;;11.96;49.75
56719;BME280;42597;40.636;0.278;2023-03-04T08:13:32;97661.44;;;10.43;47.56
56719;BME280;42597;40.636;0.278;2023-03-04T08:15:58;97660.81;;;11.16;52.51
56719;BME280;42597;40.636;0.278;2023-03-04T08:18:23;97664.19;;;10.13;48.52
56719;BME280;42597;40.636;0.278;2023-03-04T08:20:49;97650.69;;;10.67;49.90
56719;BME280;42597;40.636;0.278;2023-03-04T08:23:15;97656.75;;;10.64;49.27
56719;BME280;42597;40.636;0.278;2023-03-04T08:25:41;97652.84;;;10.61;49.55
56719;BME280;42597;40.636;0.278;2023-03-04T08:28:09;97654.41;;;11.57;47.45
56719;BME280;42597;40.636;0.278;2023-03-04T08:30:41;97662.31;;;10.05;48.49
56719;BME280;42597;40.636;0.278;2023-03-04T08:33:09;97661.63;;;11.41;52.20
56719;BME280;42597;40.636;0.278;2023-03-04T08:35:42;97654.56;;;12.13;50.26
56719;BME280;42597;40.636;0.278;2023-03-04T08:38:17;97658.03;;;11.36;47.01
56719;BME280;42597;40.636;0.278;2023-03-04T08:40:50;97661.31;;;11.42;46.35
56719;BME280;42597;40.636;0.278;2023-03-04T08:43:16;97654.59;;;12.41;50.23
56719;BME280;42597;40.636;0.278;2023-03-04T08:45:41;97655.88;;;12.31;49.38
56719;BME280;42597;40.636;0.278;2023-03-04T08:48:07;97650.34;;;13.00;48.69
56719;BME280;42597;40.636;0.278;2023-03-04T08:50:33;97656.31;;;11.81;46.71
56719;BME280;42597;40.636;0.278;2023-03-04T08:52:59;97663.81;;;12.24;50.04
56719;BME280;42597;40.636;0.278;2023-03-04T08:55:25;97649.63;;;12.71;49.07
56719;BME280;42597;40.636;0.278;2023-03-04T08:57:50;97667.69;;;11.25;50.91
56719;BME280;42597;40.636;0.278;2023-03-04T09:00:16;97651.56;;;12.43;48.10
56719;BME280;42597;40.636;0.278;2023-03-04T09:02:42;97670.50;;;10.17;47.21
56719;BME280;42597;40.636;0.278;2023-03-04T09:05:08;97665.84;;;10.93;46.24
56719;BME280;42597;40.636;0.278;2023-03-04T09:07:33;97666.34;;;11.07;49.96
56719;BME280;42597;40.636;0.278;2023-03-04T09:09:59;97664.97;;;11.01;46.71
56719;BME280;42597;40.636;0.278;2023-03-04T09:12:25;97664.16;;;10.55;47.39
56719;BME280;42597;40.636;0.278;2023-03-04T09:14:50;97669.63;;;11.25;50.01
56719;BME280;42597;40.636;0.278;2023-03-04T09:17:16;97657.09;;;11.08;46.46
56719;BME280;42597;40.636;0.278;2023-03-04T09:19:41;97675.44;;;10.90;46.69
56719;BME280;42597;40.636;0.278;2023-03-04T09:22:07;97662.69;;;10.78;47.93
56719;BME280;42597;40.636;0.278;2023-03-04T09:24:32;97669.75;;;11.28;46.79
56719;BME280;42597;40.636;0.278;2023-03-04T09:26:58;97666.56;;;11.02;47.90
56719;BME280;42597;40.636;0.278;2023-03-04T09:29:24;97672.13;;;11.54;45.47
56719;BME280;42597;40.636;0.278;2023-03-04T09:31:49;97666.56;;;11.02;45.81
56719;BME280;42597;40.636;0.278;2023-03-04T09:34:15;97663.66;;;12.33;49.08
56719;BME280;42597;40.636;0.278;2023-03-04T09:36:41;97666.47;;;11.96;44.21
56719;BME280;42597;40.636;0.278;2023-03-04T09:39:06;97666.34;;;10.61;44.75
56719;BME280;42597;40.636;0.278;2023-03-04T09:41:44;97660.50;;;11.66;46.84
56719;BME280;42597;40.636;0.278;2023-03-04T09:44:29;97662.09;;;11.55;47.57
56719;BME280;42597;40.636;0.278;2023-03-04T09:46:59;97668.75;;;10.75;45.72
56719;BME280;42597;40.636;0.278;2023-03-04T09:49:27;97674.06;;;10.51;45.06
56719;BME280;42597;40.636;0.278;2023-03-04T09:52:02;97668.75;;;10.21;45.16
56719;BME280;42597;40.636;0.278;2023-03-04T09:57:27;97658.50;;;10.48;44.88
56719;BME280;42597;40.636;0.278;2023-03-04T10:00:13;97660.03;;;10.36;44.28
56719;BME280;42597;40.636;0.278;2023-03-04T10:05:29;97653.28;;;11.21;47.07
56719;BME280;42597;40.636;0.278;2023-03-04T10:07:58;97645.50;;;11.69;48.20
56719;BME280;42597;40.636;0.278;2023-03-04T10:10:26;97647.88;;;11.33;44.97
56719;BME280;42597;40.636;0.278;2023-03-04T10:12:56;97651.94;;;11.52;43.06
56719;BME280;42597;40.636;0.278;2023-03-04T10:15:40;97646.75;;;11.59;47.03
56719;BME280;42597;40.636;0.278;2023-03-04T10:21:01;97636.41;;;12.14;48.24
56719;BME280;42597;40.636;0.278;2023-03-04T10:23:30;97634.88;;;11.76;42.41
56719;BME280;42597;40.636;0.278;2023-03-04T10:25:58;97642.25;;;11.26;43.30
56719;BME280;42597;40.636;0.278;2023-03-04T10:28:28;97647.66;;;11.14;42.01
56719;BME280;42597;40.636;0.278;2023-03-04T10:33:39;97630.50;;;11.71;47.09
56719;BME280;42597;40.636;0.278;2023-03-04T10:38:43;97628.47;;;11.56;43.14
56719;BME280;42597;40.636;0.278;2023-03-04T10:41:19;97627.38;;;12.38;42.97
56719;BME280;42597;40.636;0.278;2023-03-04T10:46:38;97638.13;;;11.81;41.11
56719;BME280;42597;40.636;0.278;2023-03-04T10:49:04;97621.84;;;12.06;44.69
56719;BME280;42597;40.636;0.278;2023-03-04T10:51:30;97629.94;;;11.41;39.57
56719;BME280;42597;40.636;0.278;2023-03-04T10:57:18;97621.59;;;12.23;41.50
56719;BME280;42597;40.636;0.278;2023-03-04T10:59:55;97620.84;;;12.39;46.04
56719;BME280;42597;40.636;0.278;2023-03-04T11:04:52;97626.91;;;11.55;39.03
56719;BME280;42597;40.636;0.278;2023-03-04T11:07:21;97622.28;;;11.68;39.81
56719;BME280;42597;40.636;0.278;2023-03-04T11:09:46;97612.13;;;12.17;45.16
56719;BME280;42597;40.636;0.278;2023-03-04T11:12:14;97612.72;;;12.67;42.99
56719;BME280;42597;40.636;0.278;2023-03-04T11:14:48;97614.28;;;12.12;39.21
56719;BME280;42597;40.636;0.278;2023-03-04T11:17:22;97603.88;;;11.85;40.23
56719;BME280;42597;40.636;0.278;2023-03-04T11:20:13;97615.75;;;12.09;40.41
56719;BME280;42597;40.636;0.278;2023-03-04T11:22:38;97603.09;;;12.13;39.84
56719;BME280;42597;40.636;0.278;2023-03-04T11:25:19;97597.16;;;12.35;39.99
56719;BME280;42597;40.636;0.278;2023-03-04T11:28:25;97602.72;;;11.99;39.27
56719;BME280;42597;40.636;0.278;2023-03-04T11:30:49;97601.09;;;12.10;40.66
56719;BME280;42597;40.636;0.278;2023-03-04T11:33:35;97598.91;;;11.88;40.10
56719;BME280;42597;40.636;0.278;2023-03-04T11:38:38;97585.63;;;12.10;39.63
56719;BME280;42597;40.636;0.278;2023-03-04T11:41:12;97576.84;;;12.29;41.19
56719;BME280;42597;40.636;0.278;2023-03-04T11:43:41;97580.00;;;12.31;39.27
56719;BME280;42597;40.636;0.278;2023-03-04T11:54:49;97559.19;;;12.64;41.89
56719;BME280;42597;40.636;0.278;2023-03-04T12:02:34;97540.16;;;13.43;44.89
56719;BME280;42597;40.636;0.278;2023-03-04T12:16:49;97520.88;;;12.65;40.24
56719;BME280;42597;40.636;0.278;2023-03-04T12:20:02;97525.69;;;12.88;41.09
56719;BME280;42597;40.636;0.278;2023-03-04T12:22:34;97523.53;;;12.33;44.00
56719;BME280;42597;40.636;0.278;2023-03-04T12:41:12;97504.34;;;12.39;45.40
56719;BME280;42597;40.636;0.278;2023-03-04T12:43:45;97505.91;;;12.40;45.02
56719;BME280;42597;40.636;0.278;2023-03-04T12:49:01;97502.25;;;12.48;45.83
56719;BME280;42597;40.636;0.278;2023-03-04T12:54:24;97499.16;;;12.33;46.22
56719;BME280;42597;40.636;0.278;2023-03-04T12:57:12;97496.81;;;12.32;46.60
56719;BME280;42597;40.636;0.278;2023-03-04T13:08:01;97492.16;;;12.17;47.01
56719;BME280;42597;40.636;0.278;2023-03-04T13:10:28;97473.81;;;13.60;46.53
56719;BME280;42597;40.636;0.278;2023-03-04T13:13:00;97480.22;;;13.71;46.47
56719;BME280;42597;40.636;0.278;2023-03-04T13:17:57;97467.78;;;12.32;46.85
56719;BME280;42597;40.636;0.278;2023-03-04T13:28:19;97452.41;;;12.68;46.92
56719;BME280;42597;40.636;0.278;2023-03-04T13:51:32;97432.94;;;12.31;46.05
56719;BME280;42597;40.636;0.278;2023-03-04T13:59:12;97420.66;;;12.53;45.67
56719;BME280;42597;40.636;0.278;2023-03-04T14:04:19;97423.78;;;12.87;46.43
56719;BME280;42597;40.636;0.278;2023-03-04T14:06:47;97419.78;;;12.49;46.14
56719;BME280;42597;40.636;0.278;2023-03-04T14:09:21;97417.13;;;12.84;48.44
56719;BME280;42597;40.636;0.278;2023-03-04T14:11:48;97424.50;;;12.68;45.61
56719;BME280;42597;40.636;0.278;2023-03-04T14:14:21;97415.06;;;12.46;45.83
56719;BME280;42597;40.636;0.278;2023-03-04T14:17:03;97416.41;;;12.52;46.52
56719;BME280;42597;40.636;0.278;2023-03-04T14:19:44;97413.59;;;12.32;46.27
56719;BME280;42597;40.636;0.278;2023-03-04T14:22:39;97413.84;;;12.75;46.63
56719;BME280;42597;40.636;0.278;2023-03-04T14:28:13;97418.41;;;12.23;46.16
56719;BME280;42597;40.636;0.278;2023-03-04T14:30:41;97415.16;;;12.02;46.79
56719;BME280;42597;40.636;0.278;2023-03-04T14:33:13;97413.78;;;12.08;46.37
56719;BME280;42597;40.636;0.278;2023-03-04T14:35:39;97412.81;;;12.32;46.87
56719;BME280;42597;40.636;0.278;2023-03-04T14:38:28;97423.56;;;12.28;46.90
56719;BME280;42597;40.636;0.278;2023-03-04T14:43:26;97423.38;;;12.21;47.16
56719;BME280;42597;40.636;0.278;2023-03-04T14:45:57;97427.84;;;12.29;47.31
56719;BME280;42597;40.636;0.278;2023-03-04T14:48:27;97414.16;;;12.22;47.61
56719;BME280;42597;40.636;0.278;2023-03-04T14:50:54;97420.16;;;12.16;47.91
56719;BME280;42597;40.636;0.278;2023-03-04T14:53:22;97408.63;;;12.19;47.64
56719;BME280;42597;40.636;0.278;2023-03-04T14:55:59;97410.88;;;12.64;51.53
56719;BME280;42597;40.636;0.278;2023-03-04T14:58:29;97407.13;;;12.53;48.83
56719;BME280;42597;40.636;0.278;2023-03-04T15:01:19;97412.72;;;12.28;48.22
56719;BME280;42597;40.636;0.278;2023-03-04T15:06:24;97418.69;;;12.18;49.20
56719;BME280;42597;40.636;0.278;2023-03-04T15:09:07;97411.34;;;12.34;49.65
56719;BME280;42597;40.636;0.278;2023-03-04T15:14:48;97409.06;;;12.37;49.79
56719;BME280;42597;40.636;0.278;2023-03-04T15:22:34;97401.38;;;12.39;49.48
56719;BME280;42597;40.636;0.278;2023-03-04T15:25:00;97406.53;;;12.12;51.11